createdAt,value
2023-04-10T00:00:57.614Z,101764.40
2023-04-10T00:03:26.520Z,101767.06
2023-04-10T00:05:55.248Z,101765.23
2023-04-10T00:08:25.587Z,101766.23
2023-04-10T00:10:54.857Z,101764.36
2023-04-10T00:13:23.447Z,101764.95
2023-04-10T00:15:51.844Z,101766.04
2023-04-10T00:18:20.623Z,101765.50
2023-04-10T00:20:48.882Z,101768.39
2023-04-10T00:23:17.357Z,101764.73
2023-04-10T00:25:48.006Z,101765.77
2023-04-10T00:28:17.637Z,101764.05
2023-04-10T00:30:45.972Z,101762.45
2023-04-10T00:33:14.502Z,101757.94
2023-04-10T00:35:43.151Z,101755.64
2023-04-10T00:38:12.776Z,101753.38
2023-04-10T00:40:41.764Z,101753.80
2023-04-10T00:43:10.227Z,101750.49
2023-04-10T00:45:39.633Z,101755.95
2023-04-10T00:48:08.419Z,101753.61
2023-04-10T00:50:36.697Z,101757.68
2023-04-10T00:53:05.385Z,101756.13
2023-04-10T00:55:33.967Z,101754.81
2023-04-10T00:58:02.757Z,101751.09
2023-04-10T01:00:31.388Z,101748.69
2023-04-10T01:03:01.813Z,101747.70
2023-04-10T01:05:35.981Z,101746.24
2023-04-10T01:08:23.102Z,101746.62
2023-04-10T01:11:24.638Z,101745.85
2023-04-10T01:14:07.576Z,101746.70
2023-04-10T01:20:19.513Z,101744.67
2023-04-10T01:23:03.018Z,101739.83
2023-04-10T01:25:42.223Z,101739.39
2023-04-10T01:28:20.518Z,101741.80
2023-04-10T01:30:54.298Z,101741.52
2023-04-10T01:33:30.136Z,101740.92
2023-04-10T01:36:03.370Z,101742.87
2023-04-10T01:38:33.289Z,101745.48
2023-04-10T01:41:02.719Z,101741.83
2023-04-10T01:43:34.189Z,101743.26
2023-04-10T01:46:05.161Z,101738.34
2023-04-10T01:48:34.115Z,101740.48
2023-04-10T01:51:07.186Z,101743.59
2023-04-10T01:53:37.016Z,101745.10
2023-04-10T01:56:08.644Z,101746.66
2023-04-10T01:58:44.171Z,101750.94
2023-04-10T02:01:28.472Z,101751.95
2023-04-10T02:03:59.950Z,101746.95
2023-04-10T02:06:55.642Z,101750.00
2023-04-10T02:09:36.418Z,101750.69
2023-04-10T02:12:09.716Z,101749.38
2023-04-10T02:14:45.270Z,101754.00
2023-04-10T02:17:22.357Z,101752.80
2023-04-10T02:19:54.913Z,101751.64
2023-04-10T02:22:25.908Z,101750.16
2023-04-10T02:24:54.945Z,101751.77
2023-04-10T02:27:36.088Z,101749.77
2023-04-10T02:30:05.635Z,101753.05
2023-04-10T02:32:35.656Z,101753.86
2023-04-10T02:35:04.496Z,101750.80
2023-04-10T02:37:33.436Z,101752.11
2023-04-10T02:40:02.629Z,101747.08
2023-04-10T02:42:37.931Z,101743.48
2023-04-10T02:45:07.580Z,101740.27
2023-04-10T02:47:39.766Z,101744.30
2023-04-10T02:50:09.454Z,101744.47
2023-04-10T02:52:39.572Z,101746.41
2023-04-10T02:55:08.631Z,101742.84
2023-04-10T02:57:38.588Z,101748.27
2023-04-10T03:00:07.992Z,101745.23
2023-04-10T03:02:56.332Z,101742.22
2023-04-10T03:05:25.265Z,101739.08
2023-04-10T03:07:54.638Z,101738.58
2023-04-10T03:10:23.520Z,101735.20
2023-04-10T03:12:51.989Z,101733.14
2023-04-10T03:15:20.897Z,101730.80
2023-04-10T03:17:49.574Z,101726.77
2023-04-10T03:20:18.366Z,101726.75
2023-04-10T03:22:47.052Z,101725.64
2023-04-10T03:25:16.751Z,101726.61
2023-04-10T03:27:45.242Z,101724.89
2023-04-10T03:30:14.342Z,101726.96
2023-04-10T03:32:45.073Z,101734.82
2023-04-10T03:35:13.565Z,101735.06
2023-04-10T03:37:42.747Z,101738.64
2023-04-10T03:40:12.367Z,101739.42
2023-04-10T03:42:41.551Z,101740.54
2023-04-10T03:45:11.389Z,101739.94
2023-04-10T03:47:39.932Z,101733.74
2023-04-10T03:50:10.794Z,101737.67
2023-04-10T03:52:46.543Z,101733.92
2023-04-10T03:55:19.260Z,101738.75
2023-04-10T03:57:49.056Z,101740.56
2023-04-10T04:00:18.728Z,101743.10
2023-04-10T04:02:52.975Z,101748.85
2023-04-10T04:05:47.336Z,101746.80
2023-04-10T04:08:45.105Z,101745.28
2023-04-10T04:11:25.671Z,101746.45
2023-04-10T04:14:01.320Z,101752.16
2023-04-10T04:16:56.424Z,101755.67
2023-04-10T04:19:57.068Z,101755.29
2023-04-10T04:22:39.894Z,101759.60
2023-04-10T04:25:30.782Z,101764.40
2023-04-10T04:28:02.444Z,101763.16
2023-04-10T04:30:36.992Z,101759.36
2023-04-10T04:33:25.978Z,101759.30
2023-04-10T04:36:07.045Z,101760.54
2023-04-10T04:39:05.689Z,101758.50
2023-04-10T04:42:02.025Z,101761.20
2023-04-10T04:44:56.620Z,101762.04
2023-04-10T04:47:59.007Z,101766.27
2023-04-10T04:50:51.645Z,101765.76
2023-04-10T04:53:40.406Z,101762.31
2023-04-10T04:56:28.960Z,101765.84
2023-04-10T04:59:19.547Z,101769.17
2023-04-10T05:02:20.361Z,101771.90
2023-04-10T05:05:20.132Z,101774.44
2023-04-10T05:08:00.735Z,101776.52
2023-04-10T05:10:42.758Z,101783.14
2023-04-10T05:13:23.653Z,101778.10
2023-04-10T05:16:10.741Z,101780.51
2023-04-10T05:18:57.999Z,101777.39
2023-04-10T05:21:45.589Z,101784.25
2023-04-10T05:24:34.754Z,101778.77
2023-04-10T05:27:22.401Z,101778.83
2023-04-10T05:30:09.518Z,101784.14
2023-04-10T05:32:48.769Z,101786.20
2023-04-10T05:35:40.718Z,101786.85
2023-04-10T05:38:27.597Z,101782.70
2023-04-10T05:41:14.082Z,101779.73
2023-04-10T05:44:01.617Z,101781.95
2023-04-10T05:46:47.999Z,101779.67
2023-04-10T05:49:36.471Z,101776.55
2023-04-10T05:52:25.671Z,101778.17
2023-04-10T05:55:12.541Z,101779.29
2023-04-10T05:57:44.136Z,101775.77
2023-04-10T06:00:48.240Z,101775.02
2023-04-10T06:03:43.724Z,101777.27
2023-04-10T06:06:12.827Z,101779.33
2023-04-10T06:08:42.022Z,101778.95
2023-04-10T06:11:10.910Z,101779.34
2023-04-10T06:13:41.643Z,101783.23
2023-04-10T06:16:10.930Z,101777.83
2023-04-10T06:18:39.741Z,101779.52
2023-04-10T06:21:08.755Z,101775.16
2023-04-10T06:23:37.617Z,101778.61
2023-04-10T06:26:06.997Z,101778.05
2023-04-10T06:28:35.801Z,101774.09
2023-04-10T06:31:07.823Z,101770.02
2023-04-10T06:33:38.002Z,101770.58
2023-04-10T06:36:10.832Z,101765.55
2023-04-10T06:38:44.797Z,101765.30
2023-04-10T06:41:13.685Z,101761.59
2023-04-10T06:43:42.163Z,101761.98
2023-04-10T06:46:10.849Z,101759.02
2023-04-10T06:48:39.325Z,101763.13
2023-04-10T06:51:08.217Z,101765.88
2023-04-10T06:53:37.080Z,101765.69
2023-04-10T06:56:07.317Z,101766.84
2023-04-10T06:58:36.129Z,101769.14
2023-04-10T07:01:05.148Z,101766.08
2023-04-10T07:03:34.183Z,101766.08
2023-04-10T07:06:03.599Z,101763.77
2023-04-10T07:08:32.294Z,101760.48
2023-04-10T07:11:01.257Z,101758.52
2023-04-10T07:13:30.269Z,101755.29
2023-04-10T07:15:59.090Z,101752.97
2023-04-10T07:18:27.763Z,101755.20
2023-04-10T07:20:56.645Z,101753.46
2023-04-10T07:23:25.167Z,101755.64
2023-04-10T07:25:53.922Z,101754.95
2023-04-10T07:28:22.804Z,101754.98
2023-04-10T07:30:52.102Z,101752.79
2023-04-10T07:33:22.772Z,101744.92
2023-04-10T07:35:52.163Z,101740.37
2023-04-10T07:38:21.434Z,101738.86
2023-04-10T07:40:52.985Z,101734.51
2023-04-10T07:43:21.594Z,101733.00
2023-04-10T07:49:32.058Z,101732.21
2023-04-10T07:52:01.082Z,101734.52
2023-04-10T07:54:34.230Z,101727.31
2023-04-10T07:57:02.936Z,101726.58
2023-04-10T07:59:32.141Z,101722.29
2023-04-10T08:02:00.929Z,101724.17
2023-04-10T08:04:30.032Z,101720.54
2023-04-10T08:06:58.925Z,101723.65
2023-04-10T08:09:47.750Z,101720.62
2023-04-10T08:12:17.482Z,101722.36
2023-04-10T08:14:46.896Z,101719.27
2023-04-10T08:17:15.655Z,101712.86
2023-04-10T08:19:44.161Z,101706.98
2023-04-10T08:22:12.817Z,101706.90
2023-04-10T08:24:41.304Z,101705.64
2023-04-10T08:27:11.313Z,101710.27
2023-04-10T08:29:40.465Z,101707.54
2023-04-10T08:32:09.514Z,101711.05
2023-04-10T08:34:37.985Z,101712.48
2023-04-10T08:37:09.723Z,101710.27
2023-04-10T08:39:39.670Z,101706.31
2023-04-10T08:42:08.491Z,101702.17
2023-04-10T08:44:38.262Z,101705.27
2023-04-10T08:47:08.798Z,101701.12
2023-04-10T08:49:39.644Z,101702.89
2023-04-10T08:52:10.065Z,101700.15
2023-04-10T08:54:39.673Z,101695.45
2023-04-10T08:57:10.692Z,101689.90
2023-04-10T08:59:40.206Z,101685.73
2023-04-10T09:02:08.766Z,101685.24
2023-04-10T09:04:37.787Z,101682.70
2023-04-10T09:07:07.710Z,101677.48
2023-04-10T09:09:36.603Z,101674.06
2023-04-10T09:12:07.098Z,101670.59
2023-04-10T09:14:37.465Z,101668.81
2023-04-10T09:17:24.608Z,101667.02
2023-04-10T09:19:55.835Z,101668.52
2023-04-10T09:22:35.042Z,101662.98
2023-04-10T09:25:05.082Z,101662.66
2023-04-10T09:27:35.756Z,101658.15
2023-04-10T09:30:05.813Z,101656.25
2023-04-10T09:32:42.982Z,101655.05
2023-04-10T09:35:14.813Z,101654.71
2023-04-10T09:37:47.063Z,101651.44
2023-04-10T09:40:23.193Z,101649.70
2023-04-10T09:42:52.887Z,101648.00
2023-04-10T09:45:22.874Z,101647.50
2023-04-10T09:48:07.875Z,101649.40
2023-04-10T09:50:40.468Z,101645.40
2023-04-10T09:53:12.621Z,101637.38
2023-04-10T09:55:43.042Z,101638.80
2023-04-10T09:58:12.546Z,101636.71
2023-04-10T10:00:49.921Z,101639.02
2023-04-10T10:03:21.580Z,101638.14
2023-04-10T10:05:51.815Z,101639.20
2023-04-10T10:08:21.748Z,101634.85
2023-04-10T10:10:53.789Z,101635.19
2023-04-10T10:13:33.127Z,101629.27
2023-04-10T10:16:13.400Z,101628.56
2023-04-10T10:18:58.068Z,101628.21
2023-04-10T10:21:28.282Z,101626.98
2023-04-10T10:23:59.857Z,101619.13
2023-04-10T10:26:30.861Z,101619.13
2023-04-10T10:29:03.491Z,101616.70
2023-04-10T10:31:34.402Z,101611.45
2023-04-10T10:34:08.638Z,101609.52
2023-04-10T10:36:38.394Z,101609.52
2023-04-10T10:39:37.825Z,101606.36
2023-04-10T10:42:14.905Z,101604.26
2023-04-10T10:44:47.478Z,101603.56
2023-04-10T10:47:24.601Z,101597.06
2023-04-10T10:49:55.193Z,101598.80
2023-04-10T10:52:53.528Z,101596.88
2023-04-10T10:55:24.414Z,101594.58
2023-04-10T10:57:53.482Z,101594.56
2023-04-10T11:00:26.904Z,101591.06
2023-04-10T11:03:08.061Z,101586.83
2023-04-10T11:05:59.908Z,101586.81
2023-04-10T11:08:35.857Z,101583.15
2023-04-10T11:11:09.666Z,101578.05
2023-04-10T11:13:40.639Z,101575.09
2023-04-10T11:16:11.443Z,101571.89
2023-04-10T11:19:02.751Z,101571.55
2023-04-10T11:22:15.992Z,101571.11
2023-04-10T11:24:58.989Z,101570.23
2023-04-10T11:27:42.151Z,101564.59
2023-04-10T11:30:28.301Z,101563.69
2023-04-10T11:32:57.504Z,101562.39
2023-04-10T11:35:27.696Z,101558.39
2023-04-10T11:38:10.161Z,101556.08
2023-04-10T11:40:54.768Z,101557.20
2023-04-10T11:43:23.211Z,101551.55
2023-04-10T11:46:00.238Z,101549.91
2023-04-10T11:48:29.878Z,101550.70
2023-04-10T11:51:00.302Z,101550.00
2023-04-10T11:53:30.380Z,101546.98
2023-04-10T11:55:59.025Z,101545.74
2023-04-10T11:58:30.713Z,101547.76
2023-04-10T12:01:00.006Z,101544.78
2023-04-10T12:03:42.822Z,101537.46
2023-04-10T12:06:13.602Z,101536.57
2023-04-10T12:08:46.209Z,101536.20
2023-04-10T12:11:16.413Z,101534.09
2023-04-10T12:13:46.777Z,101536.11
2023-04-10T12:16:15.750Z,101535.81
2023-04-10T12:18:48.015Z,101533.60
2023-04-10T12:21:18.126Z,101530.20
2023-04-10T12:23:46.704Z,101525.80
2023-04-10T12:26:17.630Z,101519.13
2023-04-10T12:28:55.518Z,101515.27
2023-04-10T12:31:37.234Z,101511.95
2023-04-10T12:34:08.547Z,101512.78
2023-04-10T12:36:38.911Z,101513.73
2023-04-10T12:39:22.951Z,101505.73
2023-04-10T12:41:52.371Z,101501.89
2023-04-10T12:44:23.505Z,101501.24
2023-04-10T12:47:02.001Z,101493.21
2023-04-10T12:49:30.484Z,101495.97
2023-04-10T12:51:59.092Z,101495.54
2023-04-10T12:54:28.513Z,101488.23
2023-04-10T12:56:59.240Z,101485.38
2023-04-10T12:59:29.307Z,101481.29
2023-04-10T13:01:57.899Z,101482.06
2023-04-10T13:04:27.550Z,101482.92
2023-04-10T13:06:56.741Z,101479.82
2023-04-10T13:09:25.143Z,101474.85
2023-04-10T13:11:53.762Z,101473.57
2023-04-10T13:14:23.011Z,101468.47
2023-04-10T13:16:51.384Z,101460.23
2023-04-10T13:19:20.477Z,101458.96
2023-04-10T13:21:50.945Z,101452.25
2023-04-10T13:24:19.625Z,101448.91
2023-04-10T13:26:48.584Z,101450.21
2023-04-10T13:29:17.273Z,101447.61
2023-04-10T13:35:04.252Z,101445.38
2023-04-10T13:37:59.002Z,101440.11
2023-04-10T13:40:28.157Z,101437.20
2023-04-10T13:42:57.401Z,101436.73
2023-04-10T13:45:26.181Z,101431.40
2023-04-10T13:47:55.013Z,101431.96
2023-04-10T13:50:25.900Z,101432.40
2023-04-10T13:52:55.612Z,101430.95
2023-04-10T13:55:24.361Z,101429.95
2023-04-10T13:57:52.989Z,101424.50
2023-04-10T14:00:22.505Z,101418.08
2023-04-10T14:02:51.836Z,101416.41
2023-04-10T14:05:20.885Z,101414.94
2023-04-10T14:07:52.237Z,101415.54
2023-04-10T14:10:21.214Z,101418.50
2023-04-10T14:12:49.812Z,101410.61
2023-04-10T14:15:18.814Z,101409.29
2023-04-10T14:17:47.566Z,101406.41
2023-04-10T14:20:16.074Z,101403.80
2023-04-10T14:22:47.660Z,101402.35
2023-04-10T14:25:16.446Z,101399.30
2023-04-10T14:27:45.913Z,101397.36
2023-04-10T14:30:14.976Z,101399.88
2023-04-10T14:32:44.202Z,101394.23
2023-04-10T14:35:13.617Z,101390.78
2023-04-10T14:37:42.415Z,101389.23
2023-04-10T14:40:11.636Z,101390.36
2023-04-10T14:42:40.186Z,101384.59
2023-04-10T14:45:09.788Z,101380.98
2023-04-10T14:47:38.629Z,101376.16
2023-04-10T14:50:08.122Z,101377.40
2023-04-10T14:52:36.866Z,101377.40
2023-04-10T14:55:06.179Z,101372.95
2023-04-10T14:57:34.852Z,101377.63
2023-04-10T15:00:04.718Z,101374.48
2023-04-10T15:02:33.211Z,101373.27
2023-04-10T15:05:01.832Z,101371.59
2023-04-10T15:07:30.754Z,101366.15
2023-04-10T15:09:59.918Z,101367.91
2023-04-10T15:12:28.639Z,101370.09
2023-04-10T15:14:57.438Z,101375.11
2023-04-10T15:17:25.837Z,101372.88
2023-04-10T15:19:54.454Z,101376.75
2023-04-10T15:22:23.062Z,101371.71
2023-04-10T15:24:51.618Z,101365.89
2023-04-10T15:27:21.478Z,101367.82
2023-04-10T15:29:50.123Z,101362.02
2023-04-10T15:32:18.590Z,101357.80
2023-04-10T15:34:47.292Z,101360.20
2023-04-10T15:37:15.887Z,101361.77
2023-04-10T15:39:44.352Z,101360.00
2023-04-10T15:42:13.754Z,101360.43
2023-04-10T15:44:42.228Z,101367.47
2023-04-10T15:47:10.738Z,101364.22
2023-04-10T15:49:39.143Z,101365.78
2023-04-10T15:52:07.489Z,101368.24
2023-04-10T15:54:36.151Z,101370.08
2023-04-10T15:57:05.044Z,101372.25
2023-04-10T15:59:34.274Z,101369.69
2023-04-10T16:02:29.256Z,101369.80
2023-04-10T16:04:58.301Z,101370.23
2023-04-10T16:07:26.850Z,101365.52
2023-04-10T16:09:56.975Z,101368.06
2023-04-10T16:12:25.732Z,101364.28
2023-04-10T16:14:54.120Z,101362.73
2023-04-10T16:17:22.505Z,101364.14
2023-04-10T16:19:51.212Z,101364.55
2023-04-10T16:22:19.823Z,101360.48
2023-04-10T16:24:48.573Z,101358.96
2023-04-10T16:27:18.357Z,101359.73
2023-04-10T16:29:46.837Z,101359.24
2023-04-10T16:32:15.360Z,101359.48
2023-04-10T16:34:43.809Z,101362.67
2023-04-10T16:37:33.823Z,101358.07
2023-04-10T16:40:02.576Z,101361.60
2023-04-10T16:42:31.460Z,101364.29
2023-04-10T16:45:03.238Z,101373.30
2023-04-10T16:47:35.980Z,101371.95
2023-04-10T16:50:09.071Z,101376.40
2023-04-10T16:52:37.781Z,101378.58
2023-04-10T16:55:07.493Z,101379.33
2023-04-10T16:57:36.169Z,101383.60
2023-04-10T17:00:05.444Z,101381.22
2023-04-10T17:02:34.215Z,101381.26
2023-04-10T17:05:02.862Z,101385.14
2023-04-10T17:07:31.737Z,101383.45
2023-04-10T17:10:00.485Z,101383.69
2023-04-10T17:12:29.345Z,101387.73
2023-04-10T17:14:58.020Z,101389.71
2023-04-10T17:17:26.828Z,101383.45
2023-04-10T17:19:55.996Z,101383.30
2023-04-10T17:22:25.086Z,101385.79
2023-04-10T17:24:53.874Z,101382.84
2023-04-10T17:27:23.181Z,101384.59
2023-04-10T17:29:52.057Z,101383.17
2023-04-10T17:32:20.774Z,101383.36
2023-04-10T17:34:49.439Z,101387.49
2023-04-10T17:37:20.001Z,101388.53
2023-04-10T17:39:52.023Z,101388.52
2023-04-10T17:42:25.015Z,101384.84
2023-04-10T17:44:53.610Z,101386.02
2023-04-10T17:47:22.377Z,101383.56
2023-04-10T17:49:51.242Z,101384.41
2023-04-10T17:52:19.882Z,101382.31
2023-04-10T17:54:48.237Z,101384.21
2023-04-10T17:57:17.033Z,101393.41
2023-04-10T17:59:46.038Z,101393.91
2023-04-10T18:02:14.543Z,101398.25
2023-04-10T18:04:43.385Z,101399.16
2023-04-10T18:07:12.281Z,101399.33
2023-04-10T18:09:41.172Z,101405.55
2023-04-10T18:12:11.089Z,101409.86
2023-04-10T18:14:40.013Z,101410.85
2023-04-10T18:17:08.909Z,101403.29
2023-04-10T18:19:37.554Z,101399.59
2023-04-10T18:22:06.466Z,101399.36
2023-04-10T18:24:35.344Z,101394.28
2023-04-10T18:27:04.545Z,101397.04
2023-04-10T18:29:33.545Z,101396.13
2023-04-10T18:32:02.046Z,101398.19
2023-04-10T18:34:33.254Z,101394.98
2023-04-10T18:37:01.964Z,101390.05
2023-04-10T18:39:30.926Z,101390.20
2023-04-10T18:42:04.221Z,101391.40
2023-04-10T18:44:35.795Z,101388.08
2023-04-10T18:47:07.876Z,101388.41
2023-04-10T18:49:36.849Z,101392.73
2023-04-10T18:52:08.899Z,101392.23
2023-04-10T18:54:38.617Z,101391.37
2023-04-10T18:57:07.906Z,101391.04
2023-04-10T18:59:37.741Z,101397.98
2023-04-10T19:02:09.256Z,101396.81
2023-04-10T19:04:38.165Z,101395.48
2023-04-10T19:07:09.861Z,101390.63
2023-04-10T19:09:48.040Z,101391.13
2023-04-10T19:12:16.632Z,101392.19
2023-04-10T19:14:45.203Z,101398.29
2023-04-10T19:17:14.500Z,101394.13
2023-04-10T19:19:43.725Z,101394.30
2023-04-10T19:22:13.752Z,101394.64
2023-04-10T19:24:42.393Z,101393.91
2023-04-10T19:27:11.109Z,101393.09
2023-04-10T19:29:39.984Z,101399.75
2023-04-10T19:32:10.042Z,101395.71
2023-04-10T19:34:42.532Z,101396.84
2023-04-10T19:37:11.456Z,101394.45
2023-04-10T19:39:40.347Z,101391.59
2023-04-10T19:42:08.939Z,101392.34
2023-04-10T19:44:37.419Z,101393.79
2023-04-10T19:47:06.310Z,101392.92
2023-04-10T19:49:37.660Z,101393.95
2023-04-10T19:52:06.539Z,101395.36
2023-04-10T19:54:35.129Z,101395.34
2023-04-10T19:57:03.924Z,101393.38
2023-04-10T19:59:32.589Z,101390.04
2023-04-10T20:02:01.472Z,101391.70
2023-04-10T20:04:30.216Z,101389.10
2023-04-10T20:06:59.574Z,101393.71
2023-04-10T20:09:28.271Z,101389.89
2023-04-10T20:11:57.460Z,101387.91
2023-04-10T20:14:27.263Z,101386.46
2023-04-10T20:16:55.854Z,101380.88
2023-04-10T20:19:24.683Z,101372.84
2023-04-10T20:21:53.427Z,101375.95
2023-04-10T20:24:22.215Z,101373.63
2023-04-10T20:26:51.042Z,101373.73
2023-04-10T20:29:19.491Z,101372.08
2023-04-10T20:31:48.302Z,101371.17
2023-04-10T20:34:16.966Z,101371.16
2023-04-10T20:36:45.644Z,101372.67
2023-04-10T20:39:14.222Z,101372.66
2023-04-10T20:41:43.120Z,101371.74
2023-04-10T20:44:12.020Z,101374.66
2023-04-10T20:46:41.001Z,101372.42
2023-04-10T20:49:12.794Z,101371.22
2023-04-10T20:51:41.646Z,101374.65
2023-04-10T20:54:10.430Z,101378.30
2023-04-10T20:56:43.515Z,101378.95
2023-04-10T20:59:12.433Z,101380.41
2023-04-10T21:01:41.412Z,101380.81
2023-04-10T21:04:10.009Z,101378.85
2023-04-10T21:06:39.101Z,101379.33
2023-04-10T21:09:07.597Z,101378.59
2023-04-10T21:11:36.357Z,101379.77
2023-04-10T21:14:05.255Z,101386.30
2023-04-10T21:16:35.466Z,101384.05
2023-04-10T21:19:04.269Z,101379.34
2023-04-10T21:21:33.676Z,101384.85
2023-04-10T21:24:02.471Z,101380.78
2023-04-10T21:26:31.355Z,101378.25
2023-04-10T21:29:00.409Z,101375.93
2023-04-10T21:31:29.366Z,101374.15
2023-04-10T21:34:13.423Z,101372.56
2023-04-10T21:36:42.315Z,101368.20
2023-04-10T21:39:11.277Z,101363.30
2023-04-10T21:41:40.257Z,101359.21
2023-04-10T21:44:09.061Z,101356.15
2023-04-10T21:46:38.205Z,101353.96
2023-04-10T21:49:07.422Z,101355.64
2023-04-10T21:51:36.447Z,101362.89
2023-04-10T21:54:04.926Z,101365.46
2023-04-10T21:56:35.863Z,101359.92
2023-04-10T21:59:04.843Z,101355.59
2023-04-10T22:01:34.573Z,101352.71
2023-04-10T22:04:03.815Z,101349.45
2023-04-10T22:06:33.053Z,101343.07
2023-04-10T22:09:01.525Z,101336.63
2023-04-10T22:11:30.246Z,101333.84
2023-04-10T22:17:35.735Z,101328.77
2023-04-10T22:20:04.800Z,101324.90
2023-04-10T22:22:33.185Z,101327.33
2023-04-10T22:25:01.670Z,101326.90
2023-04-10T22:27:30.270Z,101327.77
2023-04-10T22:32:30.539Z,101332.70
2023-04-10T22:35:00.323Z,101330.62
2023-04-10T22:37:29.064Z,101324.38
2023-04-10T22:39:57.649Z,101321.54
2023-04-10T22:42:27.648Z,101323.54
2023-04-10T22:44:57.118Z,101321.79
2023-04-10T22:47:27.487Z,101318.31
2023-04-10T22:49:56.070Z,101310.97
2023-04-10T22:52:24.748Z,101308.30
2023-04-10T22:54:53.535Z,101310.60
2023-04-10T22:57:22.042Z,101307.10
2023-04-10T22:59:50.721Z,101304.85
2023-04-10T23:02:19.342Z,101299.63
2023-04-10T23:04:50.057Z,101295.90
2023-04-10T23:07:19.573Z,101292.89
2023-04-10T23:09:48.265Z,101294.92
2023-04-10T23:12:16.910Z,101295.95
2023-04-10T23:14:45.481Z,101288.49
2023-04-10T23:17:14.106Z,101286.23
2023-04-10T23:19:42.763Z,101286.03
2023-04-10T23:22:12.871Z,101286.24
2023-04-10T23:24:41.377Z,101284.81
2023-04-10T23:27:09.945Z,101278.42
2023-04-10T23:29:38.531Z,101279.56
2023-04-10T23:32:08.375Z,101284.23
2023-04-10T23:34:37.236Z,101285.02
2023-04-10T23:37:06.924Z,101282.40
2023-04-10T23:39:35.747Z,101277.83
2023-04-10T23:42:05.041Z,101274.98
2023-04-10T23:44:33.832Z,101272.73
2023-04-10T23:47:02.758Z,101274.83
2023-04-10T23:49:31.874Z,101269.30
2023-04-10T23:52:00.953Z,101264.29
2023-04-10T23:54:30.341Z,101259.16
2023-04-10T23:56:59.771Z,101258.65
2023-04-10T23:59:28.489Z,101257.73
